Time;durP1;ratioP1;P1;durP2;ratioP2;P2;SDS_P1;SDS_P2;PMS_P1;PMS_P2;Temp;Humidity;BMP_temperature;BMP_pressure;BME280_temperature;BME280_humidity;BME280_pressure;Samples;Min_cycle;Max_cycle;Signal;HPM_P1;HPM_P2
2021/10/13 00:02:16;;;;;;;4.67;3.80;;;;;;;12.15;59.42;98179.53;8271111;28;20548;-64
2021/10/13 00:06:19;;;;;;;4.30;3.83;;;;;;;12.12;59.52;98188.28;8256115;28;20207;-65
2021/10/13 00:10:22;;;;;;;5.23;3.73;;;;;;;12.12;59.08;98190.03;8255805;28;20233;-64
2021/10/13 00:14:26;;;;;;;4.27;3.87;;;;;;;12.13;59.24;98195.16;8255884;28;20501;-64
2021/10/13 00:18:29;;;;;;;4.20;3.80;;;;;;;12.01;59.35;98193.13;8255783;28;20381;-64
2021/10/13 00:22:32;;;;;;;6.40;4.10;;;;;;;12.09;59.56;98193.63;8255397;28;20256;-64
2021/10/13 00:26:35;;;;;;;3.87;3.50;;;;;;;12.04;59.31;98193.00;8255612;28;20220;-64
2021/10/13 00:30:39;;;;;;;4.23;3.83;;;;;;;12.02;58.82;98197.41;8255256;28;20209;-64
2021/10/13 00:34:42;;;;;;;3.63;3.27;;;;;;;12.01;58.60;98198.31;8216869;28;1146011;-65
2021/10/13 00:38:45;;;;;;;3.30;3.00;;;;;;;11.98;58.36;98193.28;8257471;28;20212;-64
2021/10/13 00:42:48;;;;;;;3.93;3.30;;;;;;;11.97;58.46;98190.75;8266017;28;20233;-64
2021/10/13 00:46:52;;;;;;;4.30;3.13;;;;;;;11.90;57.97;98190.22;8289256;28;20210;-64
2021/10/13 00:50:55;;;;;;;3.53;3.10;;;;;;;11.90;58.15;98193.66;8289034;28;20497;-64
2021/10/13 00:54:58;;;;;;;4.33;3.37;;;;;;;11.86;58.30;98191.22;8289016;28;20206;-64
2021/10/13 00:59:01;;;;;;;4.13;3.00;;;;;;;11.87;58.31;98190.31;8288778;28;20208;-64
2021/10/13 01:03:12;;;;;;;4.23;3.40;;;;;;;11.84;58.24;98186.13;8288531;28;20233;-64
2021/10/13 01:07:23;;;;;;;4.47;3.30;;;;;;;11.78;58.66;98193.31;8288869;28;20493;-64
2021/10/13 01:11:37;;;;;;;3.80;3.50;;;;;;;11.80;58.43;98207.06;8288432;28;20232;-64
2021/10/13 01:15:47;;;;;;;4.07;3.30;;;;;;;11.74;58.16;98208.19;8288431;28;20224;-64
2021/10/13 01:20:03;;;;;;;3.60;3.30;;;;;;;11.64;58.15;98217.31;8288385;28;20205;-64
2021/10/13 01:24:17;;;;;;;3.70;3.40;;;;;;;11.60;58.05;98218.34;8288125;28;20524;-64
2021/10/13 01:28:24;;;;;;;3.67;3.37;;;;;;;11.58;58.49;98220.19;8288046;28;20213;-65
2021/10/13 01:32:28;;;;;;;4.20;3.53;;;;;;;11.49;58.85;98231.78;8287993;28;20238;-64
2021/10/13 01:36:35;;;;;;;3.50;3.20;;;;;;;11.60;58.12;98223.53;8288066;28;20201;-64
2021/10/13 01:40:39;;;;;;;3.53;3.23;;;;;;;11.64;58.05;98238.88;8287595;28;20202;-64
2021/10/13 01:44:47;;;;;;;4.80;3.30;;;;;;;11.60;58.06;98233.91;8287128;28;20237;-64
2021/10/13 01:48:50;;;;;;;3.20;2.90;;;;;;;11.58;58.15;98244.34;8287279;28;20210;-64
2021/10/13 01:52:54;;;;;;;3.60;3.30;;;;;;;11.60;57.89;98254.66;8287285;28;20400;-64
2021/10/13 01:56:59;;;;;;;3.33;3.03;;;;;;;11.60;58.20;98262.44;8286909;28;20209;-64
2021/10/13 02:01:04;;;;;;;3.90;3.33;;;;;;;11.63;57.84;98264.88;8287110;28;20208;-64
2021/10/13 02:05:09;;;;;;;3.50;3.20;;;;;;;11.59;57.85;98259.00;8286814;28;20237;-64
2021/10/13 02:09:12;;;;;;;3.83;3.53;;;;;;;11.54;57.71;98267.00;8286719;28;20512;-64
2021/10/13 02:13:16;;;;;;;4.10;3.80;;;;;;;11.61;58.23;98277.91;8285622;28;20300;-64
2021/10/13 02:17:23;;;;;;;5.23;3.93;;;;;;;11.53;58.14;98278.25;8286485;28;20217;-64
2021/10/13 02:21:26;;;;;;;4.70;4.30;;;;;;;11.59;58.42;98265.94;8286440;28;20357;-64
2021/10/13 02:25:35;;;;;;;5.80;4.50;;;;;;;11.57;58.35;98273.78;8286168;28;20417;-64
2021/10/13 02:29:38;;;;;;;5.80;4.87;;;;;;;11.57;58.64;98275.53;8286076;28;20201;-64
2021/10/13 02:33:45;;;;;;;4.83;4.43;;;;;;;11.53;59.06;98277.41;8285816;28;20260;-64
2021/10/13 02:37:48;;;;;;;5.47;4.97;;;;;;;11.53;58.13;98283.44;8285889;28;20206;-64
2021/10/13 02:41:51;;;;;;;5.40;4.90;;;;;;;11.54;58.39;98290.34;8285543;28;20229;-64
2021/10/13 02:45:58;;;;;;;5.60;5.10;;;;;;;11.49;58.47;98297.47;8285607;28;20212;-64
2021/10/13 02:50:09;;;;;;;5.73;5.23;;;;;;;11.61;58.68;98313.41;8285472;28;20202;-64
2021/10/13 02:54:17;;;;;;;5.70;5.20;;;;;;;11.57;58.94;98314.44;8285463;28;20498;-64
2021/10/13 02:58:23;;;;;;;5.67;5.17;;;;;;;11.59;58.65;98323.00;8285148;28;20210;-64
2021/10/13 03:02:26;;;;;;;6.10;5.00;;;;;;;11.59;58.96;98323.84;8285429;28;20229;-64
2021/10/13 03:06:38;;;;;;;5.70;5.10;;;;;;;11.59;58.60;98334.22;8284967;28;20202;-64
2021/10/13 03:10:41;;;;;;;5.37;4.90;;;;;;;11.62;58.77;98328.91;8285197;28;20221;-64
2021/10/13 03:14:45;;;;;;;5.70;5.20;;;;;;;11.58;58.63;98334.31;8284946;28;20205;-64
2021/10/13 03:18:48;;;;;;;5.67;5.17;;;;;;;11.61;58.83;98327.22;8284793;28;20717;-64
2021/10/13 03:22:56;;;;;;;6.03;5.30;;;;;;;11.65;58.91;98331.38;8284397;28;20241;-64
2021/10/13 03:26:59;;;;;;;6.20;5.30;;;;;;;11.62;58.34;98326.31;8284777;28;20208;-64
2021/10/13 03:31:02;;;;;;;5.50;5.00;;;;;;;11.71;58.65;98333.72;8284553;28;20208;-64
2021/10/13 03:35:06;;;;;;;5.23;4.73;;;;;;;11.64;58.92;98339.22;8284575;28;20233;-64
2021/10/13 03:39:11;;;;;;;6.43;5.10;;;;;;;11.63;58.34;98345.31;8284387;28;20381;-64
2021/10/13 03:43:14;;;;;;;5.80;4.70;;;;;;;11.52;58.79;98349.22;8284152;28;20548;-64
2021/10/13 03:47:17;;;;;;;5.13;4.43;;;;;;;11.59;58.83;98348.94;8284317;28;20202;-64
2021/10/13 03:51:20;;;;;;;5.47;5.03;;;;;;;11.60;58.58;98348.06;8284342;28;20268;-64
2021/10/13 03:55:24;;;;;;;6.83;5.27;;;;;;;11.52;58.75;98350.97;8284349;28;20390;-64
2021/10/13 03:59:27;;;;;;;6.00;5.40;;;;;;;11.57;58.57;98350.75;8284073;28;20493;-64
2021/10/13 04:03:30;;;;;;;6.17;5.57;;;;;;;11.44;59.03;98361.66;8283797;28;20229;-64
2021/10/13 04:07:33;;;;;;;6.87;5.60;;;;;;;11.43;58.91;98365.16;8283894;28;20208;-64
2021/10/13 04:11:37;;;;;;;6.87;6.20;;;;;;;11.39;58.55;98357.56;8283727;28;20411;-64
2021/10/13 04:15:40;;;;;;;7.37;5.53;;;;;;;11.35;58.39;98368.06;8283847;28;20206;-64
2021/10/13 04:19:43;;;;;;;6.03;5.43;;;;;;;11.36;58.39;98366.31;8283843;28;20206;-64
2021/10/13 04:23:46;;;;;;;5.97;5.27;;;;;;;11.41;58.37;98371.31;8283625;28;20237;-64
2021/10/13 04:27:50;;;;;;;6.40;5.80;;;;;;;11.35;58.03;98365.47;8302636;28;20489;-64
2021/10/13 04:31:53;;;;;;;6.40;5.77;;;;;;;11.29;58.00;98364.84;8293648;28;20386;-64
2021/10/13 04:35:56;;;;;;;6.27;5.33;;;;;;;11.23;58.09;98372.91;8286572;28;20238;-64
2021/10/13 04:39:59;;;;;;;5.60;5.10;;;;;;;11.21;57.63;98377.31;8289407;28;20201;-65
2021/10/13 04:44:03;;;;;;;7.00;5.70;;;;;;;11.09;58.13;98381.22;8289110;28;20237;-65
2021/10/13 04:48:06;;;;;;;6.63;6.00;;;;;;;11.21;57.72;98385.91;8289346;28;20224;-64
2021/10/13 04:52:10;;;;;;;8.97;6.50;;;;;;;11.13;57.87;98393.16;8293286;28;20489;-65
2021/10/13 04:56:13;;;;;;;7.20;6.50;;;;;;;11.14;57.70;98406.06;8302899;28;20204;-65
2021/10/13 05:00:17;;;;;;;8.57;6.87;;;;;;;11.10;57.67;98401.91;8304234;28;20197;-64
2021/10/13 05:04:20;;;;;;;10.13;7.50;;;;;;;11.00;57.79;98416.13;8299829;28;20427;-65
2021/10/13 05:08:23;;;;;;;8.43;7.13;;;;;;;11.07;58.26;98420.16;8288667;28;20201;-64
2021/10/13 05:12:26;;;;;;;9.43;7.47;;;;;;;11.05;58.16;98419.38;8290955;28;20229;-65
2021/10/13 05:16:30;;;;;;;9.80;7.07;;;;;;;11.09;58.23;98423.53;8288411;28;20394;-64
2021/10/13 05:20:33;;;;;;;8.33;7.53;;;;;;;11.11;58.37;98429.50;8288289;28;20485;-65
2021/10/13 05:24:36;;;;;;;8.77;7.40;;;;;;;11.08;58.44;98432.22;8288002;28;20229;-64
2021/10/13 05:28:39;;;;;;;8.80;7.17;;;;;;;11.01;58.63;98432.53;8288010;28;20493;-64
2021/10/13 05:32:43;;;;;;;8.47;7.67;;;;;;;11.10;58.57;98425.25;8306587;28;20233;-64
2021/10/13 05:36:46;;;;;;;8.93;7.10;;;;;;;11.08;58.69;98437.41;8319978;28;20201;-64
2021/10/13 05:40:49;;;;;;;8.73;7.57;;;;;;;11.08;58.21;98444.34;8314186;28;20201;-65
2021/10/13 05:44:52;;;;;;;9.57;7.53;;;;;;;11.11;58.65;98445.06;8287169;28;20414;-64
2021/10/13 05:48:57;;;;;;;10.57;7.80;;;;;;;11.11;58.18;98450.25;8286083;28;20201;-64
2021/10/13 05:52:59;;;;;;;8.40;7.50;;;;;;;11.02;58.31;98463.56;8287227;28;20252;-64
2021/10/13 05:57:22;;;;;;;10.57;7.80;;;;;;;11.13;57.89;98476.13;8287288;28;20394;-64
2021/10/13 06:01:25;;;;;;;9.10;8.20;;;;;;;11.14;58.05;98478.66;8287047;28;20435;-64
2021/10/13 06:05:30;;;;;;;10.37;8.00;;;;;;;11.14;58.02;98489.03;8287044;28;20234;-65
2021/10/13 06:09:32;;;;;;;8.50;7.30;;;;;;;11.15;58.59;98500.22;8286745;28;20215;-64
2021/10/13 06:13:35;;;;;;;8.43;7.53;;;;;;;11.13;58.21;98512.41;8286388;28;20233;-64
2021/10/13 06:17:39;;;;;;;8.50;7.63;;;;;;;11.19;58.47;98517.34;8286596;28;20202;-64
2021/10/13 06:21:43;;;;;;;8.20;7.37;;;;;;;11.26;58.17;98511.03;8286514;28;20202;-64
2021/10/13 06:25:46;;;;;;;8.67;7.80;;;;;;;11.30;58.14;98524.72;8286044;28;20544;-64
2021/10/13 06:29:49;;;;;;;10.53;8.37;;;;;;;11.19;58.07;98527.72;8286096;28;20497;-64
2021/10/13 06:33:52;;;;;;;12.67;8.60;;;;;;;11.25;58.02;98540.47;8285818;28;20242;-64
2021/10/13 06:37:56;;;;;;;11.63;8.63;;;;;;;11.27;58.38;98543.84;8285789;28;20210;-64
2021/10/13 06:41:59;;;;;;;14.23;8.30;;;;;;;11.31;58.54;98536.81;8285472;28;20217;-65
2021/10/13 06:46:02;;;;;;;11.10;8.87;;;;;;;11.37;58.35;98546.94;8311573;28;20224;-65
2021/10/13 06:50:06;;;;;;;9.20;8.30;;;;;;;11.37;58.33;98549.53;8317916;28;20231;-64
2021/10/13 06:54:11;;;;;;;9.40;8.37;;;;;;;11.35;58.47;98562.53;8318200;28;20236;-65
2021/10/13 06:58:16;;;;;;;10.37;8.40;;;;;;;11.43;58.68;98562.25;8317608;28;20213;-65
2021/10/13 07:02:19;;;;;;;9.80;8.07;;;;;;;11.48;58.37;98562.06;8317943;28;20208;-65
2021/10/13 07:06:22;;;;;;;11.37;9.13;;;;;;;11.46;58.70;98564.72;8317583;28;20231;-65
2021/10/13 07:10:26;;;;;;;9.70;8.80;;;;;;;11.56;58.51;98567.81;8317737;28;20221;-65
2021/10/13 07:14:29;;;;;;;9.43;8.53;;;;;;;11.66;58.42;98563.94;8317605;28;20392;-64
2021/10/13 07:18:32;;;;;;;10.00;9.00;;;;;;;11.71;58.15;98568.97;8317513;28;20215;-64
2021/10/13 07:22:36;;;;;;;9.50;8.60;;;;;;;11.77;58.35;98573.91;8317189;28;20208;-64
2021/10/13 07:26:44;;;;;;;9.20;8.30;;;;;;;11.64;58.58;98577.91;8317017;28;20229;-64
2021/10/13 07:30:47;;;;;;;9.33;8.37;;;;;;;11.81;58.36;98585.03;8317149;28;20391;-64
2021/10/13 07:34:50;;;;;;;9.63;8.63;;;;;;;11.88;58.03;98578.66;8305840;28;20260;-64
2021/10/13 07:38:53;;;;;;;10.83;8.80;;;;;;;12.01;57.79;98579.88;8284535;28;20202;-64
2021/10/13 07:42:57;;;;;;;9.17;8.23;;;;;;;11.89;57.58;98582.97;8284021;28;20216;-66
2021/10/13 07:47:00;;;;;;;9.10;8.20;;;;;;;12.03;57.80;98582.44;8284259;28;20225;-66
2021/10/13 07:51:03;;;;;;;8.73;7.83;;;;;;;12.18;57.40;98587.00;8284195;28;20224;-65
2021/10/13 07:55:07;;;;;;;8.50;7.70;;;;;;;12.39;57.17;98587.84;8284204;28;20497;-66
2021/10/13 07:59:11;;;;;;;9.60;8.10;;;;;;;12.36;57.12;98593.19;8284003;28;20201;-66
2021/10/13 08:03:14;;;;;;;9.27;7.80;;;;;;;12.30;57.42;98594.28;8284115;28;20202;-65
2021/10/13 08:07:20;;;;;;;10.03;7.53;;;;;;;12.29;57.86;98602.16;8283888;28;20332;-65
2021/10/13 08:11:23;;;;;;;8.90;7.17;;;;;;;12.39;57.26;98595.66;8287846;28;20229;-65
2021/10/13 08:15:27;;;;;;;9.63;7.30;;;;;;;12.65;57.14;98593.72;8290250;28;20209;-65
2021/10/13 08:19:35;;;;;;;10.97;7.70;;;;;;;12.79;57.13;98608.72;8290094;28;20201;-65
2021/10/13 08:23:38;;;;;;;8.73;7.03;;;;;;;12.92;56.99;98617.66;8290051;28;20205;-65
2021/10/13 08:27:41;;;;;;;10.00;7.63;;;;;;;12.58;57.09;98615.66;8289561;28;20434;-63
2021/10/13 08:31:45;;;;;;;8.13;6.90;;;;;;;12.89;56.67;98617.81;8289668;28;20212;-63
2021/10/13 08:35:59;;;;;;;7.73;6.90;;;;;;;13.34;55.24;98619.31;8289834;28;20248;-63
2021/10/13 08:40:01;;;;;;;9.80;7.03;;;;;;;13.43;55.14;98610.25;8289674;28;20201;-64
2021/10/13 08:44:05;;;;;;;9.43;7.47;;;;;;;13.49;55.46;98617.78;8289145;28;20202;-64
2021/10/13 08:48:09;;;;;;;12.77;3.13;;;;;;;14.52;65.60;98625.88;8289312;28;20213;-63
2021/10/13 08:52:12;;;;;;;14.10;4.50;;;;;;;15.69;58.39;98624.16;8289571;28;20496;-63
2021/10/13 08:56:15;;;;;;;5.77;4.30;;;;;;;16.64;51.88;98615.34;8288973;28;20205;-63
2021/10/13 09:00:22;;;;;;;7.73;4.57;;;;;;;16.97;48.18;98612.56;8288874;28;20201;-63
2021/10/13 09:04:26;;;;;;;7.70;5.63;;;;;;;15.40;48.67;98623.97;8289107;28;20232;-63
2021/10/13 09:08:29;;;;;;;5.63;5.13;;;;;;;15.48;50.30;98621.81;8289261;28;20485;-64
2021/10/13 09:12:33;;;;;;;7.87;5.70;;;;;;;16.00;47.96;98624.19;8288419;28;20221;-63
2021/10/13 09:16:55;;;;;;;5.90;4.50;;;;;;;15.51;49.01;98626.84;8288374;28;20205;-63
2021/10/13 09:21:00;;;;;;;5.67;4.67;;;;;;;15.78;48.89;98627.19;8288196;28;20208;-63
2021/10/13 09:25:03;;;;;;;6.20;4.50;;;;;;;15.30;48.29;98635.84;8288238;28;20411;-63
2021/10/13 09:29:07;;;;;;;8.00;4.30;;;;;;;15.35;46.67;98631.25;8288216;28;20210;-64
2021/10/13 09:33:13;;;;;;;6.43;4.33;;;;;;;15.57;48.45;98631.78;8287895;28;20238;-64
2021/10/13 09:37:18;;;;;;;6.03;4.07;;;;;;;16.25;46.84;98619.38;8287994;28;20209;-64
2021/10/13 09:41:21;;;;;;;4.80;3.40;;;;;;;17.30;45.36;98619.28;8287784;28;20249;-64
2021/10/13 09:45:24;;;;;;;5.20;3.33;;;;;;;16.99;43.17;98614.13;8295018;28;20316;-64
2021/10/13 09:49:32;;;;;;;4.00;3.10;;;;;;;17.21;43.36;98607.63;8319760;28;20208;-64
2021/10/13 09:53:37;;;;;;;5.27;3.50;;;;;;;16.70;44.41;98612.41;8319722;28;20208;-64
2021/10/13 09:57:42;;;;;;;6.13;4.43;;;;;;;17.60;42.66;98611.31;8319045;28;20511;-64
2021/10/13 10:01:46;;;;;;;4.27;2.67;;;;;;;17.03;43.26;98616.59;8318952;28;20208;-64
2021/10/13 10:05:50;;;;;;;7.50;4.37;;;;;;;17.70;41.96;98614.19;8319087;28;20235;-63
2021/10/13 10:10:11;;;;;;;4.37;2.80;;;;;;;17.42;43.32;98626.41;8319181;28;20217;-64
2021/10/13 10:14:43;;;;;;;8.77;3.17;;;;;;;16.53;44.32;98629.91;8319210;28;20201;-64
2021/10/13 10:18:46;;;;;;;3.67;2.10;;;;;;;16.41;43.83;98626.25;8318997;28;20211;-66
2021/10/13 10:22:50;;;;;;;3.67;2.30;;;;;;;15.95;44.61;98633.22;8318759;28;20504;-66
2021/10/13 10:27:25;;;;;;;6.03;3.03;;;;;;;15.56;44.41;98630.06;8318684;28;20399;-65
2021/10/13 10:31:37;;;;;;;3.92;2.05;;;;;;;15.66;44.33;98626.97;8318004;28;20611;-65
2021/10/13 10:35:41;;;;;;;3.83;2.93;;;;;;;15.50;45.85;98629.56;8318167;28;20244;-64
2021/10/13 10:39:56;;;;;;;4.20;1.87;;;;;;;15.18;45.13;98627.75;8318181;28;20201;-64
2021/10/13 10:44:31;;;;;;;3.80;1.90;;;;;;;16.00;43.51;98628.59;8299329;28;20435;-64
2021/10/13 10:48:45;;;;;;;3.20;1.70;;;;;;;15.99;43.04;98632.97;8285937;28;20209;-64
2021/10/13 10:53:29;;;;;;;4.30;2.00;;;;;;;15.92;44.00;98644.69;8285733;28;20547;-64
2021/10/13 10:57:34;;;;;;;5.23;1.90;;;;;;;16.68;43.28;98635.16;8272160;28;20205;-64
2021/10/13 11:01:39;;;;;;;3.83;2.20;;;;;;;17.30;41.25;98635.00;8285062;28;20206;-64
2021/10/13 11:05:42;;;;;;;14.07;6.30;;;;;;;17.11;42.06;98636.09;8293764;28;20417;-64
2021/10/13 11:09:45;;;;;;;13.60;7.57;;;;;;;16.53;43.08;98637.75;8300419;28;20389;-64
2021/10/13 11:13:58;;;;;;;9.40;5.23;;;;;;;16.09;43.30;98632.44;8314390;28;20308;-65
2021/10/13 11:18:13;;;;;;;35.07;17.70;;;;;;;16.07;42.21;98632.56;8296247;28;20208;-65
2021/10/13 11:22:17;;;;;;;5.87;2.47;;;;;;;15.56;42.75;98630.06;8284824;28;20210;-65
2021/10/13 11:26:26;;;;;;;6.13;2.70;;;;;;;15.38;40.42;98634.53;8284467;28;20225;-65
2021/10/13 11:30:31;;;;;;;5.57;2.60;;;;;;;16.11;38.15;98628.84;8284376;28;20240;-66
2021/10/13 11:34:36;;;;;;;1.80;1.70;;;;;;;16.73;38.40;98626.13;8284573;28;20230;-66
2021/10/13 11:38:40;;;;;;;1.85;1.20;;;;;;;17.55;35.81;98626.44;8282820;28;20426;-64
2021/10/13 11:42:44;;;;;;;4.47;1.20;;;;;;;17.41;35.85;98631.72;8283956;28;20206;-65
2021/10/13 11:47:01;;;;;;;2.10;1.30;;;;;;;17.08;36.66;98627.63;8290875;28;20248;-64
2021/10/13 11:51:16;;;;;;;2.73;1.60;;;;;;;16.57;36.37;98626.19;8290719;28;20232;-64
2021/10/13 11:55:20;;;;;;;3.67;1.10;;;;;;;16.48;37.60;98634.56;8290427;28;20213;-64
2021/10/13 11:59:23;;;;;;;1.93;1.00;;;;;;;15.66;38.14;98634.81;8276716;28;20201;-64
2021/10/13 12:03:30;;;;;;;1.97;0.87;;;;;;;16.22;38.39;98622.97;8266882;28;20267;-64
2021/10/13 12:07:42;;;;;;;3.43;1.07;;;;;;;16.61;37.70;98629.47;8258266;28;20236;-64
2021/10/13 12:11:45;;;;;;;2.83;1.20;;;;;;;16.75;37.64;98631.25;8288509;28;20213;-65
2021/10/13 12:15:49;;;;;;;2.80;1.00;;;;;;;16.89;38.37;98626.09;8305902;28;20201;-65
2021/10/13 12:19:52;;;;;;;4.30;0.87;;;;;;;16.59;37.51;98618.25;8304568;28;20198;-65
2021/10/13 12:23:59;;;;;;;1.70;1.00;;;;;;;16.34;37.24;98622.28;8305403;28;20193;-65
2021/10/13 12:28:02;;;;;;;2.60;1.20;;;;;;;16.07;38.78;98623.84;8316591;28;20284;-65
2021/10/13 12:32:15;;;;;;;2.07;1.03;;;;;;;15.83;38.33;98622.53;8302332;28;20379;-65
2021/10/13 12:36:20;;;;;;;4.33;1.00;;;;;;;16.00;39.20;98620.75;8308080;28;20202;-65
2021/10/13 12:40:24;;;;;;;2.13;1.13;;;;;;;15.82;39.78;98625.22;8291581;28;20203;-65
2021/10/13 12:44:30;;;;;;;4.10;1.30;;;;;;;16.22;38.15;98623.84;8299163;28;20201;-65
2021/10/13 12:48:40;;;;;;;4.87;1.30;;;;;;;16.56;38.79;98618.41;8290449;28;20414;-66
2021/10/13 12:52:43;;;;;;;4.40;1.20;;;;;;;16.79;37.44;98619.69;8321935;28;20201;-65
2021/10/13 12:56:48;;;;;;;3.70;1.40;;;;;;;16.87;37.85;98627.09;8302289;28;20384;-65
2021/10/13 13:00:56;;;;;;;5.23;3.77;;;;;;;17.38;37.13;98623.13;8288706;28;20265;-66
2021/10/13 13:04:59;;;;;;;5.07;3.40;;;;;;;17.15;37.35;98619.31;8288808;28;20265;-67
2021/10/13 13:09:02;;;;;;;6.60;1.30;;;;;;;17.30;37.24;98621.91;8288395;28;20427;-68
2021/10/13 13:13:06;;;;;;;1.93;1.10;;;;;;;17.56;37.10;98622.91;8289854;28;20302;-65
2021/10/13 13:17:10;;;;;;;2.67;1.10;;;;;;;17.84;35.94;98622.03;8308700;28;20207;-70
2021/10/13 13:21:12;;;;;;;6.37;1.30;;;;;;;17.89;36.34;98617.34;8309103;28;20201;-65
2021/10/13 13:25:15;;;;;;;7.07;1.70;;;;;;;17.92;36.66;98621.56;8297324;28;20193;-65
2021/10/13 13:29:19;;;;;;;4.60;1.40;;;;;;;17.25;38.50;98624.81;8320552;28;20544;-65
2021/10/13 13:33:22;;;;;;;5.17;1.40;;;;;;;16.77;39.45;98618.94;8309442;28;20446;-64
2021/10/13 13:37:25;;;;;;;4.70;1.60;;;;;;;16.53;42.45;98624.69;8287708;28;20371;-65
2021/10/13 13:41:28;;;;;;;4.13;1.93;;;;;;;16.29;40.72;98629.53;8287288;28;20202;-66
2021/10/13 13:45:32;;;;;;;5.27;2.70;;;;;;;16.20;40.82;98632.69;8287520;28;20202;-66
2021/10/13 13:49:35;;;;;;;3.77;2.43;;;;;;;15.64;41.02;98630.50;8287296;28;20233;-66
2021/10/13 13:53:38;;;;;;;2.73;2.00;;;;;;;15.69;41.41;98626.78;8287290;28;20208;-65
2021/10/13 13:57:41;;;;;;;3.93;2.57;;;;;;;15.80;40.08;98633.16;8287412;28;20210;-65
2021/10/13 14:01:46;;;;;;;4.33;2.57;;;;;;;16.35;39.26;98628.34;8289114;28;20205;-65
2021/10/13 14:05:49;;;;;;;7.33;5.33;;;;;;;16.18;39.58;98629.31;8299475;28;20205;-65
2021/10/13 14:09:52;;;;;;;4.17;1.97;;;;;;;16.13;39.82;98629.59;8301054;28;20194;-65
2021/10/13 14:13:55;;;;;;;1.93;1.10;;;;;;;16.58;38.81;98640.97;8301850;28;20219;-65
2021/10/13 14:17:59;;;;;;;3.20;1.70;;;;;;;16.83;37.67;98638.69;8300406;28;20209;-65
2021/10/13 14:22:03;;;;;;;2.57;1.30;;;;;;;16.95;37.62;98630.97;8313234;28;20197;-65
2021/10/13 14:26:06;;;;;;;2.77;1.33;;;;;;;16.90;35.55;98627.75;8318962;28;20201;-65
2021/10/13 14:30:10;;;;;;;1.67;0.87;;;;;;;17.00;36.44;98623.69;8312127;28;20252;-65
2021/10/13 14:34:14;;;;;;;5.60;1.17;;;;;;;17.13;37.50;98634.22;8285653;28;20230;-65
2021/10/13 14:38:17;;;;;;;3.03;1.03;;;;;;;17.13;37.12;98628.16;8285449;28;20206;-66
2021/10/13 14:42:21;;;;;;;3.60;1.03;;;;;;;17.18;36.53;98631.34;8285438;28;20289;-65
2021/10/13 14:46:24;;;;;;;2.83;0.83;;;;;;;17.20;36.83;98630.31;8285482;28;20421;-65
2021/10/13 14:50:29;;;;;;;1.70;1.00;;;;;;;17.35;37.49;98631.16;8285544;28;20308;-65
2021/10/13 14:54:38;;;;;;;2.57;1.03;;;;;;;17.19;37.24;98626.03;8285319;28;20205;-65
2021/10/13 14:58:41;;;;;;;3.87;1.10;;;;;;;17.11;37.59;98625.63;8285591;28;20212;-65
2021/10/13 15:02:44;;;;;;;2.47;1.00;;;;;;;16.67;37.86;98634.31;8285244;28;20208;-66
2021/10/13 15:06:49;;;;;;;2.83;0.87;;;;;;;16.62;37.66;98628.53;8285160;28;20234;-65
2021/10/13 15:10:52;;;;;;;2.92;1.08;;;;;;;16.63;36.03;98630.22;8284258;28;20509;-65
2021/10/13 15:14:55;;;;;;;2.67;1.10;;;;;;;16.91;36.48;98641.72;8283405;28;20428;-65
2021/10/13 15:18:58;;;;;;;4.60;1.80;;;;;;;16.46;37.83;98640.81;8284635;28;20205;-65
2021/10/13 15:23:02;;;;;;;2.33;1.30;;;;;;;16.37;39.48;98650.00;8284741;28;20255;-65
2021/10/13 15:27:05;;;;;;;2.03;1.43;;;;;;;16.13;38.47;98649.66;8284642;28;20230;-65
2021/10/13 15:31:08;;;;;;;4.10;1.10;;;;;;;15.98;38.80;98646.94;8284437;28;20213;-65
2021/10/13 15:35:11;;;;;;;2.97;2.07;;;;;;;15.79;39.12;98648.91;8261735;28;20228;-65
2021/10/13 15:39:17;;;;;;;7.93;4.80;;;;;;;15.52;39.64;98659.88;8298443;28;20197;-71
2021/10/13 15:43:20;;;;;;;4.13;2.00;;;;;;;15.22;40.23;98664.97;8313290;28;20197;-65
2021/10/13 15:47:23;;;;;;;9.20;3.73;;;;;;;15.29;40.40;98668.06;8301429;28;20225;-65
2021/10/13 15:51:26;;;;;;;4.17;1.93;;;;;;;15.08;41.22;98670.03;8299697;28;20193;-66
2021/10/13 15:55:31;;;;;;;3.37;1.70;;;;;;;14.92;41.77;98677.81;8291870;28;20205;-65
2021/10/13 15:59:34;;;;;;;2.63;1.23;;;;;;;14.77;42.10;98677.66;8294602;28;20206;-66
2021/10/13 16:03:36;;;;;;;3.45;1.52;;;;;;;15.20;41.27;98680.69;8288824;28;20729;-64
2021/10/13 16:07:39;;;;;;;13.43;1.70;;;;;;;14.71;42.41;98683.19;8283783;28;20229;-65
2021/10/13 16:11:44;;;;;;;15.67;1.97;;;;;;;14.77;44.50;98695.91;8283657;28;20244;-69
2021/10/13 16:15:47;;;;;;;3.67;1.20;;;;;;;14.55;43.10;98688.28;8283908;28;20201;-69
2021/10/13 16:19:50;;;;;;;6.20;1.83;;;;;;;14.39;43.82;98689.94;8283978;28;20509;-68
2021/10/13 16:23:53;;;;;;;4.30;1.33;;;;;;;14.33;44.20;98698.88;8283830;28;20209;-68
2021/10/13 16:27:57;;;;;;;3.17;1.73;;;;;;;14.31;44.53;98702.50;8292059;28;20225;-68
2021/10/13 16:32:02;;;;;;;4.57;2.60;;;;;;;14.16;45.42;98712.72;8267826;28;20217;-69
2021/10/13 16:36:06;;;;;;;8.73;5.20;;;;;;;14.05;46.32;98713.22;8257413;28;20405;-68
2021/10/13 16:40:10;;;;;;;9.80;6.00;;;;;;;13.92;46.69;98706.91;8257405;28;20203;-68
2021/10/13 16:44:14;;;;;;;3.43;1.97;;;;;;;14.02;46.77;98704.72;8289963;28;20196;-68
2021/10/13 16:48:17;;;;;;;4.57;3.63;;;;;;;13.95;46.98;98714.56;8306604;28;20217;-68
2021/10/13 16:52:20;;;;;;;7.70;4.03;;;;;;;13.93;47.52;98711.19;8304666;28;20201;-68
2021/10/13 16:56:23;;;;;;;6.97;3.60;;;;;;;13.81;48.05;98719.56;8303182;28;20209;-68
2021/10/13 17:00:27;;;;;;;6.47;3.20;;;;;;;13.76;48.60;98713.72;8305234;28;20208;-68
2021/10/13 17:04:30;;;;;;;7.13;3.13;;;;;;;13.76;48.11;98721.53;8314241;28;20503;-67
2021/10/13 17:08:33;;;;;;;3.87;2.50;;;;;;;13.61;48.44;98723.94;8303222;28;20225;-67
2021/10/13 17:12:36;;;;;;;5.67;3.00;;;;;;;13.54;49.09;98722.50;8314840;28;20216;-67
2021/10/13 17:16:41;;;;;;;5.27;2.80;;;;;;;13.46;49.16;98733.25;8319246;28;20201;-68
2021/10/13 17:20:44;;;;;;;5.07;3.10;;;;;;;13.36;49.13;98737.13;8319318;28;20201;-68
2021/10/13 17:24:47;;;;;;;4.63;3.60;;;;;;;13.30;49.78;98738.25;8298146;28;20199;-67
2021/10/13 17:28:50;;;;;;;6.20;3.87;;;;;;;13.19;49.87;98739.59;8270292;28;20236;-67
2021/10/13 17:32:54;;;;;;;7.60;4.70;;;;;;;13.07;50.18;98736.59;8268447;28;20241;-67
2021/10/13 17:36:57;;;;;;;7.10;4.43;;;;;;;13.04;50.11;98741.09;8288068;28;20229;-67
2021/10/13 17:41:00;;;;;;;4.83;3.30;;;;;;;13.01;50.46;98754.22;8287548;28;20201;-67
2021/10/13 17:45:03;;;;;;;4.67;2.90;;;;;;;12.93;50.63;98746.75;8287544;28;20202;-67
2021/10/13 17:49:07;;;;;;;5.80;3.37;;;;;;;12.90;50.42;98752.06;8287481;28;20399;-67
2021/10/13 17:53:10;;;;;;;13.80;4.63;;;;;;;12.88;50.79;98752.13;8287638;28;20213;-67
2021/10/13 17:57:13;;;;;;;27.07;16.43;;;;;;;12.81;50.59;98745.50;8287210;28;20497;-67
2021/10/13 18:01:17;;;;;;;17.37;10.33;;;;;;;12.81;50.56;98752.44;8287449;28;20205;-67
2021/10/13 18:05:21;;;;;;;5.37;2.83;;;;;;;12.69;50.32;98765.03;8311324;28;20197;-67
2021/10/13 18:09:25;;;;;;;4.83;2.80;;;;;;;12.67;50.80;98766.00;8319157;28;20429;-67
2021/10/13 18:13:28;;;;;;;4.80;3.13;;;;;;;12.63;50.63;98764.44;8310172;28;20418;-67
2021/10/13 18:17:31;;;;;;;6.37;3.93;;;;;;;12.65;50.63;98768.66;8286597;28;20205;-67
2021/10/13 18:21:35;;;;;;;9.23;4.87;;;;;;;12.57;51.11;98775.91;8286763;28;20488;-67
2021/10/13 18:25:39;;;;;;;6.07;5.13;;;;;;;12.47;51.07;98783.22;8286430;28;20489;-67
2021/10/13 18:29:42;;;;;;;11.93;6.20;;;;;;;12.44;50.75;98778.16;8295663;28;20233;-67
2021/10/13 18:33:46;;;;;;;9.27;5.90;;;;;;;12.34;51.19;98782.03;8286503;28;20237;-67
2021/10/13 18:37:50;;;;;;;12.17;7.53;;;;;;;12.23;51.38;98790.22;8295334;28;20414;-67
2021/10/13 18:41:53;;;;;;;14.10;10.10;;;;;;;12.35;51.20;98791.50;8316770;28;20201;-67
2021/10/13 18:45:56;;;;;;;10.10;7.33;;;;;;;12.27;51.63;98794.38;8312375;28;20197;-66
2021/10/13 18:49:59;;;;;;;7.80;5.27;;;;;;;12.25;51.15;98798.78;8304946;28;20225;-67
2021/10/13 18:54:03;;;;;;;7.33;5.13;;;;;;;12.22;51.08;98801.53;8300470;28;20228;-67
2021/10/13 18:58:06;;;;;;;7.77;5.00;;;;;;;12.16;51.71;98804.31;8300645;28;20202;-67
2021/10/13 19:02:09;;;;;;;10.57;7.07;;;;;;;12.13;51.48;98809.66;8298460;28;20409;-67
2021/10/13 19:06:12;;;;;;;9.83;8.00;;;;;;;12.02;51.92;98801.41;8300632;28;20209;-67
2021/10/13 19:10:17;;;;;;;11.43;5.70;;;;;;;11.99;51.73;98807.53;8300515;28;20224;-67